createdAt,value
2023-05-11T00:01:11.070Z,91.10
2023-05-11T00:03:38.435Z,91.10
2023-05-11T00:06:05.361Z,91.10
2023-05-11T00:08:32.097Z,91.20
2023-05-11T00:11:00.921Z,91.10
2023-05-11T00:13:28.762Z,91.20
2023-05-11T00:15:55.784Z,91.20
2023-05-11T00:18:22.680Z,91.20
2023-05-11T00:20:49.487Z,91.20
2023-05-11T00:23:16.293Z,91.20
2023-05-11T00:25:43.073Z,91.20
2023-05-11T00:28:10.643Z,91.20
2023-05-11T00:30:37.473Z,91.50
2023-05-11T00:33:04.499Z,91.50
2023-05-11T00:35:32.752Z,91.50
2023-05-11T00:37:59.768Z,91.50
2023-05-11T00:40:26.529Z,91.50
2023-05-11T00:42:53.222Z,91.40
2023-05-11T00:45:20.115Z,91.40
2023-05-11T00:47:47.490Z,91.40
2023-05-11T00:50:14.625Z,91.40
2023-05-11T00:52:42.191Z,91.40
2023-05-11T00:55:10.185Z,91.40
2023-05-11T00:57:38.253Z,91.40
2023-05-11T01:00:07.113Z,91.40
2023-05-11T01:02:34.210Z,91.30
2023-05-11T01:05:01.861Z,91.30
2023-05-11T01:07:59.822Z,91.20
2023-05-11T01:10:31.951Z,91.20
2023-05-11T01:13:27.350Z,91.30
2023-05-11T01:15:58.376Z,91.20
2023-05-11T01:18:50.541Z,91.30
2023-05-11T01:21:18.313Z,91.20
2023-05-11T01:23:58.012Z,91.10
2023-05-11T01:26:52.836Z,91.00
2023-05-11T01:29:22.681Z,91.00
2023-05-11T01:31:53.681Z,91.00
2023-05-11T01:34:24.434Z,91.00
2023-05-11T01:37:16.360Z,91.00
2023-05-11T01:39:54.349Z,91.00
2023-05-11T01:42:28.679Z,90.90
2023-05-11T01:44:57.612Z,90.90
2023-05-11T01:47:26.376Z,90.90
2023-05-11T01:49:55.792Z,90.90
2023-05-11T01:52:25.779Z,90.90
2023-05-11T01:54:54.366Z,90.90
2023-05-11T01:57:22.683Z,90.90
2023-05-11T01:59:50.513Z,90.90
2023-05-11T02:02:19.005Z,90.90
2023-05-11T02:04:46.797Z,90.90
2023-05-11T02:07:15.225Z,90.90
2023-05-11T02:09:43.100Z,91.00
2023-05-11T02:12:11.280Z,91.00
2023-05-11T02:14:39.254Z,91.00
2023-05-11T02:17:08.183Z,91.00
2023-05-11T02:19:36.840Z,91.00
2023-05-11T02:22:05.308Z,91.00
2023-05-11T02:24:34.087Z,91.00
2023-05-11T02:27:00.942Z,91.00
2023-05-11T02:29:28.008Z,91.00
2023-05-11T02:32:05.093Z,91.00
2023-05-11T02:34:39.073Z,91.10
2023-05-11T02:37:10.778Z,91.10
2023-05-11T02:39:38.887Z,91.10
2023-05-11T02:42:14.565Z,91.10
2023-05-11T02:44:50.788Z,91.10
2023-05-11T02:47:20.221Z,91.20
2023-05-11T02:49:53.694Z,91.10
2023-05-11T02:52:23.196Z,91.10
2023-05-11T02:54:51.222Z,91.20
2023-05-11T02:57:18.538Z,91.20
2023-05-11T02:59:46.500Z,91.20
2023-05-11T03:02:13.482Z,91.20
2023-05-11T03:04:40.450Z,91.30
2023-05-11T03:07:08.113Z,91.20
2023-05-11T03:09:35.415Z,91.20
2023-05-11T03:12:03.504Z,91.20
2023-05-11T03:14:33.846Z,91.20
2023-05-11T03:17:01.645Z,91.30
2023-05-11T03:19:29.456Z,91.30
2023-05-11T03:21:58.613Z,91.30
2023-05-11T03:24:26.579Z,91.30
2023-05-11T03:26:56.608Z,91.30
2023-05-11T03:29:25.809Z,91.40
2023-05-11T03:31:54.175Z,91.30
2023-05-11T03:34:21.150Z,91.40
2023-05-11T03:36:52.461Z,91.40
2023-05-11T03:39:21.143Z,91.40
2023-05-11T03:41:50.762Z,91.50
2023-05-11T03:44:20.709Z,91.40
2023-05-11T03:46:48.556Z,91.50
2023-05-11T03:49:16.921Z,91.50
2023-05-11T03:51:44.963Z,91.50
2023-05-11T03:54:11.951Z,91.50
2023-05-11T03:56:39.422Z,91.50
2023-05-11T03:59:07.528Z,91.50
2023-05-11T04:01:34.855Z,91.50
2023-05-11T04:04:01.818Z,91.50
2023-05-11T04:06:28.791Z,91.50
2023-05-11T04:08:55.604Z,91.60
2023-05-11T04:11:22.876Z,91.60
2023-05-11T04:13:49.718Z,91.60
2023-05-11T04:16:16.478Z,91.60
2023-05-11T04:18:43.324Z,91.60
2023-05-11T04:21:10.235Z,91.60
2023-05-11T04:23:37.132Z,91.60
2023-05-11T04:26:03.968Z,91.70
2023-05-11T04:28:30.712Z,91.70
2023-05-11T04:30:57.984Z,91.70
2023-05-11T04:33:24.926Z,91.70
2023-05-11T04:35:53.240Z,91.70
2023-05-11T04:38:21.130Z,91.70
2023-05-11T04:40:48.556Z,91.70
2023-05-11T04:43:15.980Z,91.70
2023-05-11T04:45:50.562Z,91.70
2023-05-11T04:48:20.358Z,91.70
2023-05-11T04:50:47.840Z,91.70
2023-05-11T04:53:14.721Z,91.70
2023-05-11T04:55:41.472Z,91.80
2023-05-11T04:58:08.240Z,91.80
2023-05-11T05:00:36.550Z,91.80
2023-05-11T05:03:03.840Z,91.80
2023-05-11T05:05:30.752Z,91.80
2023-05-11T05:07:57.483Z,91.80
2023-05-11T05:10:24.367Z,91.80
2023-05-11T05:12:51.078Z,91.80
2023-05-11T05:15:17.869Z,91.80
2023-05-11T05:17:44.610Z,91.80
2023-05-11T05:20:11.700Z,91.80
2023-05-11T05:22:38.418Z,91.80
2023-05-11T05:25:05.723Z,91.80
2023-05-11T05:27:34.897Z,91.80
2023-05-11T05:30:01.981Z,91.80
2023-05-11T05:32:28.943Z,91.80
2023-05-11T05:34:56.030Z,91.80
2023-05-11T05:37:22.759Z,91.80
2023-05-11T05:39:49.564Z,91.90
2023-05-11T05:42:16.423Z,91.90
2023-05-11T05:44:43.128Z,91.90
2023-05-11T05:47:09.828Z,91.90
2023-05-11T05:49:36.588Z,91.90
2023-05-11T05:52:03.397Z,91.80
2023-05-11T05:54:30.167Z,91.90
2023-05-11T05:56:56.960Z,91.90
2023-05-11T05:59:24.406Z,91.90
2023-05-11T06:01:51.549Z,91.90
2023-05-11T06:04:18.554Z,91.90
2023-05-11T06:06:46.477Z,91.90
2023-05-11T06:09:13.695Z,91.90
2023-05-11T06:11:41.123Z,91.90
2023-05-11T06:14:07.881Z,91.70
2023-05-11T06:16:34.720Z,91.70
2023-05-11T06:19:01.633Z,91.70
2023-05-11T06:21:28.455Z,91.70
2023-05-11T06:23:55.212Z,91.70
2023-05-11T06:26:25.028Z,91.70
2023-05-11T06:28:52.723Z,91.70
2023-05-11T06:31:19.801Z,91.70
2023-05-11T06:33:46.623Z,91.70
2023-05-11T06:36:13.391Z,91.70
2023-05-11T06:38:40.330Z,91.70
2023-05-11T06:41:07.668Z,91.70
2023-05-11T06:43:34.409Z,91.70
2023-05-11T06:46:01.251Z,91.70
2023-05-11T06:48:29.897Z,91.70
2023-05-11T06:50:57.101Z,91.70
2023-05-11T06:53:23.961Z,91.70
2023-05-11T06:55:50.830Z,91.70
2023-05-11T06:58:20.606Z,91.70
2023-05-11T07:00:47.635Z,91.70
2023-05-11T07:03:14.483Z,91.70
2023-05-11T07:05:41.353Z,91.70
2023-05-11T07:08:08.078Z,91.60
2023-05-11T07:10:34.831Z,91.70
2023-05-11T07:13:01.676Z,91.60
2023-05-11T07:15:28.597Z,91.70
2023-05-11T07:17:55.448Z,91.70
2023-05-11T07:20:22.307Z,91.70
2023-05-11T07:22:49.006Z,91.70
2023-05-11T07:25:16.078Z,91.70
2023-05-11T07:27:42.898Z,91.70
2023-05-11T07:30:10.009Z,91.70
2023-05-11T07:32:36.820Z,91.70
2023-05-11T07:35:03.688Z,91.70
2023-05-11T07:37:30.508Z,91.60
2023-05-11T07:39:57.301Z,91.70
2023-05-11T07:42:24.094Z,91.60
2023-05-11T07:44:50.862Z,91.60
2023-05-11T07:47:20.685Z,91.60
2023-05-11T07:49:48.573Z,91.60
2023-05-11T07:52:15.384Z,91.60
2023-05-11T07:54:42.300Z,91.60
2023-05-11T07:57:11.322Z,91.50
2023-05-11T07:59:38.387Z,91.60
2023-05-11T08:02:07.549Z,91.60
2023-05-11T08:04:34.431Z,91.60
2023-05-11T08:07:01.210Z,91.60
2023-05-11T08:09:28.155Z,91.50
2023-05-11T08:11:56.522Z,91.50
2023-05-11T08:14:26.242Z,91.60
2023-05-11T08:16:53.345Z,91.50
2023-05-11T08:19:20.104Z,91.40
2023-05-11T08:21:46.977Z,91.50
2023-05-11T08:24:13.735Z,91.40
2023-05-11T08:26:40.498Z,91.40
2023-05-11T08:29:08.061Z,91.30
2023-05-11T08:31:34.882Z,91.30
2023-05-11T08:34:02.066Z,91.40
2023-05-11T08:36:28.833Z,91.40
2023-05-11T08:38:59.073Z,91.20
2023-05-11T08:41:26.241Z,91.20
2023-05-11T08:43:54.546Z,91.00
2023-05-11T08:46:23.759Z,91.10
2023-05-11T08:48:50.774Z,91.10
2023-05-11T08:51:17.627Z,90.90
2023-05-11T08:53:45.643Z,90.80
2023-05-11T08:56:13.097Z,90.80
2023-05-11T08:58:40.684Z,90.30
2023-05-11T09:01:08.761Z,90.40
2023-05-11T09:03:37.000Z,90.40
2023-05-11T09:06:07.166Z,89.90
2023-05-11T09:08:36.710Z,90.00
2023-05-11T09:11:04.669Z,88.90
2023-05-11T09:13:32.076Z,88.90
2023-05-11T09:15:59.305Z,89.50
2023-05-11T09:18:26.859Z,88.60
2023-05-11T09:20:53.825Z,88.10
2023-05-11T09:23:29.117Z,88.50
2023-05-11T09:25:55.925Z,89.30
2023-05-11T09:28:25.756Z,87.60
2023-05-11T09:30:53.804Z,88.10
2023-05-11T09:33:26.486Z,86.70
2023-05-11T09:35:53.738Z,85.40
2023-05-11T09:38:22.983Z,84.20
2023-05-11T09:40:54.868Z,83.80
2023-05-11T09:43:26.927Z,84.20
2023-05-11T09:45:56.186Z,86.20
2023-05-11T09:48:32.883Z,85.90
2023-05-11T09:51:07.823Z,85.60
2023-05-11T09:53:41.165Z,86.60
2023-05-11T09:56:08.407Z,84.80
2023-05-11T09:58:57.290Z,85.50
2023-05-11T10:01:32.836Z,84.00
2023-05-11T10:04:17.703Z,79.30
2023-05-11T10:06:51.237Z,80.20
2023-05-11T10:09:23.291Z,78.20
2023-05-11T10:11:51.355Z,72.00
2023-05-11T10:14:19.689Z,77.00
2023-05-11T10:16:47.533Z,78.50
2023-05-11T10:19:15.073Z,81.20
2023-05-11T10:21:42.359Z,79.70
2023-05-11T10:24:10.442Z,80.50
2023-05-11T10:26:38.420Z,75.10
2023-05-11T10:29:05.466Z,72.50
2023-05-11T10:31:32.999Z,77.40
2023-05-11T10:34:02.064Z,69.70
2023-05-11T10:36:29.207Z,74.30
2023-05-11T10:38:56.089Z,74.70
2023-05-11T10:41:31.919Z,70.40
2023-05-11T10:44:34.099Z,72.50
2023-05-11T10:47:00.762Z,67.00
2023-05-11T10:50:06.208Z,64.40
2023-05-11T10:53:04.721Z,62.40
2023-05-11T10:55:50.021Z,69.10
2023-05-11T10:58:28.349Z,67.90
2023-05-11T11:01:16.414Z,72.00
2023-05-11T11:03:59.552Z,75.40
2023-05-11T11:06:29.329Z,73.10
2023-05-11T11:09:04.592Z,69.80
2023-05-11T11:11:33.838Z,68.90
2023-05-11T11:14:03.884Z,66.40
2023-05-11T11:16:31.032Z,66.10
2023-05-11T11:19:28.665Z,60.40
2023-05-11T11:22:02.187Z,70.00
2023-05-11T11:24:38.320Z,64.70
2023-05-11T11:27:09.448Z,62.20
2023-05-11T11:29:37.766Z,40.80
2023-05-11T11:32:19.900Z,48.50
2023-05-11T11:34:47.940Z,32.60
2023-05-11T11:37:16.657Z,59.80
2023-05-11T11:39:43.361Z,68.80
2023-05-11T11:42:32.310Z,66.30
2023-05-11T11:45:28.745Z,53.60
2023-05-11T11:48:09.905Z,41.10
2023-05-11T11:50:36.937Z,55.70
2023-05-11T11:53:04.527Z,51.50
2023-05-11T11:55:51.821Z,21.70
2023-05-11T11:58:40.459Z,29.20
2023-05-11T12:01:08.186Z,7.70
2023-05-11T12:03:39.076Z,1.00
2023-05-11T12:06:08.015Z,1.00
2023-05-11T12:08:36.118Z,1.00
2023-05-11T12:11:04.311Z,42.70
2023-05-11T12:13:31.886Z,20.90
2023-05-11T12:16:12.501Z,1.00
2023-05-11T12:18:40.499Z,1.00
2023-05-11T12:21:07.810Z,18.30
2023-05-11T12:23:34.588Z,1.00
2023-05-11T12:26:02.515Z,1.00
2023-05-11T12:28:29.421Z,1.00
2023-05-11T12:30:59.150Z,1.00
2023-05-11T12:33:27.556Z,1.00
2023-05-11T12:35:56.774Z,1.00
2023-05-11T12:38:23.644Z,1.00
2023-05-11T12:40:52.087Z,1.00
2023-05-11T12:43:22.805Z,1.00
2023-05-11T12:45:49.823Z,1.00
2023-05-11T12:48:17.045Z,1.00
2023-05-11T12:50:47.250Z,1.00
2023-05-11T12:53:21.501Z,1.00
2023-05-11T12:55:59.041Z,1.00
2023-05-11T12:58:25.945Z,1.00
2023-05-11T13:00:54.665Z,3.30
2023-05-11T13:03:29.750Z,1.00
2023-05-11T13:06:08.148Z,1.20
2023-05-11T13:08:40.004Z,1.00
2023-05-11T13:11:26.870Z,1.00
2023-05-11T13:13:56.145Z,1.00
2023-05-11T13:16:33.700Z,10.80
2023-05-11T13:19:05.837Z,12.60
2023-05-11T13:21:33.544Z,25.60
2023-05-11T13:24:02.127Z,36.50
2023-05-11T13:26:32.103Z,39.70
2023-05-11T13:29:10.182Z,25.80
2023-05-11T13:32:04.027Z,38.60
2023-05-11T13:34:30.911Z,18.90
2023-05-11T13:36:57.705Z,21.50
2023-05-11T13:39:24.545Z,1.00
2023-05-11T13:41:52.274Z,1.00
2023-05-11T13:44:19.865Z,6.80
2023-05-11T13:46:46.734Z,1.00
2023-05-11T13:49:13.760Z,1.00
2023-05-11T13:51:40.538Z,10.50
2023-05-11T13:54:07.367Z,28.40
2023-05-11T13:56:34.141Z,37.30
2023-05-11T13:59:01.031Z,27.70
2023-05-11T14:01:27.916Z,26.90
2023-05-11T14:03:55.751Z,26.20
2023-05-11T14:06:24.528Z,1.00
2023-05-11T14:08:51.682Z,1.00
2023-05-11T14:11:18.482Z,1.00
2023-05-11T14:13:45.216Z,1.00
2023-05-11T14:16:12.018Z,1.00
2023-05-11T14:18:38.875Z,1.00
2023-05-11T14:21:05.695Z,1.00
2023-05-11T14:23:32.558Z,1.00
2023-05-11T14:25:59.526Z,1.00
2023-05-11T14:28:26.307Z,1.00
2023-05-11T14:30:53.186Z,1.00
2023-05-11T14:33:20.196Z,1.00
2023-05-11T14:35:49.315Z,1.00
2023-05-11T14:38:16.171Z,1.00
2023-05-11T14:40:42.969Z,1.30
2023-05-11T14:43:09.762Z,16.30
2023-05-11T14:45:36.955Z,36.80
2023-05-11T14:48:04.601Z,61.10
2023-05-11T14:50:31.553Z,62.50
2023-05-11T14:52:58.474Z,61.60
2023-05-11T14:55:25.298Z,61.10
2023-05-11T14:57:53.166Z,50.70
2023-05-11T15:00:20.270Z,60.80
2023-05-11T15:02:47.088Z,60.20
2023-05-11T15:05:13.821Z,65.00
2023-05-11T15:07:40.591Z,62.50
2023-05-11T15:10:08.142Z,57.30
2023-05-11T15:12:34.957Z,32.40
2023-05-11T15:15:01.764Z,45.00
2023-05-11T15:17:28.538Z,20.40
2023-05-11T15:19:55.331Z,1.00
2023-05-11T15:22:22.611Z,1.00
2023-05-11T15:24:49.499Z,10.60
2023-05-11T15:27:16.272Z,21.80
2023-05-11T15:29:43.350Z,28.20
2023-05-11T15:32:13.571Z,28.40
2023-05-11T15:34:54.903Z,20.90
2023-05-11T15:37:25.804Z,14.00
2023-05-11T15:39:52.550Z,1.00
2023-05-11T15:42:19.381Z,1.00
2023-05-11T15:44:46.302Z,1.00
2023-05-11T15:47:13.248Z,10.30
2023-05-11T15:49:39.987Z,11.20
2023-05-11T15:52:07.034Z,9.50
2023-05-11T15:54:35.882Z,1.00
2023-05-11T15:57:03.126Z,1.00
2023-05-11T15:59:32.462Z,21.20
2023-05-11T16:01:59.635Z,21.00
2023-05-11T16:04:26.812Z,1.00
2023-05-11T16:06:53.594Z,1.00
2023-05-11T16:09:20.388Z,1.00
2023-05-11T16:11:47.165Z,16.00
2023-05-11T16:14:13.896Z,14.30
2023-05-11T16:16:41.585Z,23.50
2023-05-11T16:19:08.528Z,29.70
2023-05-11T16:21:35.420Z,28.90
2023-05-11T16:24:02.264Z,29.20
2023-05-11T16:26:29.505Z,12.30
2023-05-11T16:28:56.308Z,32.60
2023-05-11T16:31:23.401Z,25.80
2023-05-11T16:33:50.305Z,52.60
2023-05-11T16:36:17.480Z,62.60
2023-05-11T16:38:44.266Z,64.60
2023-05-11T16:41:11.574Z,65.70
2023-05-11T16:43:41.739Z,64.10
2023-05-11T16:46:11.449Z,63.60
2023-05-11T16:48:38.219Z,57.80
2023-05-11T16:51:05.003Z,60.60
2023-05-11T16:53:31.872Z,62.10
2023-05-11T16:55:58.664Z,51.70
2023-05-11T16:58:25.667Z,53.30
2023-05-11T17:00:52.714Z,38.00
2023-05-11T17:03:20.115Z,26.90
2023-05-11T17:05:47.488Z,12.20
2023-05-11T17:08:14.277Z,18.80
2023-05-11T17:10:41.525Z,27.40
2023-05-11T17:13:08.373Z,42.60
2023-05-11T17:15:35.195Z,30.80
2023-05-11T17:18:02.041Z,52.50
2023-05-11T17:20:28.895Z,55.10
2023-05-11T17:22:55.853Z,62.20
2023-05-11T17:25:22.674Z,61.50
2023-05-11T17:27:49.615Z,62.30
2023-05-11T17:30:17.583Z,61.60
2023-05-11T17:32:44.804Z,62.90
2023-05-11T17:35:11.842Z,64.10
2023-05-11T17:37:38.673Z,65.20
2023-05-11T17:40:06.219Z,68.10
2023-05-11T17:42:34.210Z,69.20
2023-05-11T17:45:01.227Z,69.90
2023-05-11T17:47:28.106Z,71.20
2023-05-11T17:49:54.968Z,71.20
2023-05-11T17:52:23.454Z,72.50
2023-05-11T17:54:50.244Z,71.70
2023-05-11T17:57:16.993Z,70.30
2023-05-11T17:59:45.511Z,71.20
2023-05-11T18:02:12.875Z,72.90
2023-05-11T18:04:41.992Z,73.90
2023-05-11T18:07:09.482Z,75.30
2023-05-11T18:09:36.406Z,76.90
2023-05-11T18:12:04.365Z,77.90
2023-05-11T18:14:31.251Z,78.90
2023-05-11T18:16:58.045Z,79.60
2023-05-11T18:19:25.034Z,80.10
2023-05-11T18:21:52.300Z,80.50
2023-05-11T18:24:19.401Z,81.00
2023-05-11T18:26:46.161Z,81.20
2023-05-11T18:29:13.274Z,81.40
2023-05-11T18:31:40.308Z,81.90
2023-05-11T18:34:07.358Z,82.30
2023-05-11T18:36:34.577Z,82.60
2023-05-11T18:39:01.424Z,83.10
2023-05-11T18:41:28.829Z,83.40
2023-05-11T18:43:55.657Z,83.80
2023-05-11T18:46:22.471Z,84.10
2023-05-11T18:48:50.533Z,83.90
2023-05-11T18:51:20.223Z,84.70
2023-05-11T18:53:47.014Z,84.70
2023-05-11T18:56:13.824Z,85.30
2023-05-11T18:58:40.640Z,85.40
2023-05-11T19:01:07.494Z,86.00
2023-05-11T19:03:34.349Z,86.30
2023-05-11T19:06:01.889Z,86.80
2023-05-11T19:08:29.479Z,87.20
2023-05-11T19:10:56.234Z,87.30
2023-05-11T19:13:23.230Z,87.30
2023-05-11T19:15:50.275Z,87.00
2023-05-11T19:18:17.848Z,87.20
2023-05-11T19:20:44.636Z,87.40
2023-05-11T19:23:11.412Z,87.40
2023-05-11T19:25:38.253Z,87.60
2023-05-11T19:28:05.077Z,87.80
2023-05-11T19:30:31.847Z,87.90
2023-05-11T19:32:59.087Z,88.30
2023-05-11T19:35:28.253Z,88.40
2023-05-11T19:37:55.276Z,88.60
2023-05-11T19:42:54.385Z,89.20
2023-05-11T19:45:21.193Z,89.40
2023-05-11T19:47:47.943Z,89.50
2023-05-11T19:50:14.997Z,89.60
2023-05-11T19:52:41.743Z,89.70
2023-05-11T19:55:08.645Z,89.80
2023-05-11T19:57:37.458Z,90.00
2023-05-11T20:00:06.094Z,90.10
2023-05-11T20:02:33.415Z,90.20
2023-05-11T20:05:00.452Z,90.50
2023-05-11T20:07:27.607Z,90.60
2023-05-11T20:09:54.941Z,90.60
2023-05-11T20:12:21.718Z,90.70
2023-05-11T20:14:48.512Z,90.70
2023-05-11T20:17:15.460Z,90.80
2023-05-11T20:19:42.196Z,90.80
2023-05-11T20:22:08.972Z,90.90
2023-05-11T20:24:35.804Z,90.90
2023-05-11T20:27:09.359Z,91.00
2023-05-11T20:29:36.629Z,91.10
2023-05-11T20:32:03.546Z,91.10
2023-05-11T20:34:30.392Z,91.20
2023-05-11T20:36:57.147Z,91.20
2023-05-11T20:39:24.158Z,91.30
2023-05-11T20:41:51.009Z,91.30
2023-05-11T20:44:18.544Z,91.30
2023-05-11T20:46:47.251Z,91.30
2023-05-11T20:49:20.158Z,91.30
2023-05-11T20:51:54.494Z,91.30
2023-05-11T20:54:22.641Z,91.30
2023-05-11T20:56:50.106Z,91.30
2023-05-11T21:01:46.911Z,91.30
2023-05-11T21:04:13.774Z,91.20
2023-05-11T21:06:40.561Z,91.30
2023-05-11T21:09:07.740Z,91.30
2023-05-11T21:11:34.542Z,91.30
2023-05-11T21:14:01.361Z,91.20
2023-05-11T21:16:28.327Z,91.20
2023-05-11T21:18:55.263Z,91.20
2023-05-11T21:21:22.058Z,91.20
2023-05-11T21:23:48.845Z,91.20
2023-05-11T21:26:15.744Z,91.20
2023-05-11T21:28:42.529Z,91.20
2023-05-11T21:31:09.422Z,91.10
2023-05-11T21:33:36.370Z,91.20
2023-05-11T21:36:05.770Z,91.10
2023-05-11T21:38:32.718Z,91.20
2023-05-11T21:40:59.482Z,91.10
2023-05-11T21:43:26.271Z,91.20
2023-05-11T21:45:53.233Z,91.20
2023-05-11T21:48:21.110Z,91.20
2023-05-11T21:50:54.788Z,91.20
2023-05-11T21:53:22.588Z,91.20
2023-05-11T21:55:50.314Z,91.20
2023-05-11T21:58:17.170Z,91.30
2023-05-11T22:00:44.259Z,91.30
2023-05-11T22:03:11.225Z,91.30
2023-05-11T22:05:38.121Z,91.30
2023-05-11T22:08:13.948Z,91.40
2023-05-11T22:10:43.170Z,91.40
2023-05-11T22:13:10.390Z,91.40
2023-05-11T22:15:37.265Z,91.40
2023-05-11T22:18:05.067Z,91.40
2023-05-11T22:20:31.993Z,91.40
2023-05-11T22:22:59.452Z,91.40
2023-05-11T22:25:26.630Z,91.40
2023-05-11T22:27:53.545Z,91.50
2023-05-11T22:30:20.763Z,91.40
2023-05-11T22:32:47.761Z,91.40
2023-05-11T22:35:14.740Z,91.50
2023-05-11T22:37:41.613Z,91.50
2023-05-11T22:40:09.596Z,91.50
2023-05-11T22:42:36.354Z,91.50
2023-05-11T22:45:03.277Z,91.50
2023-05-11T22:47:30.207Z,91.50
2023-05-11T22:49:57.174Z,91.50
2023-05-11T22:52:23.885Z,91.50
2023-05-11T22:55:00.346Z,91.50
2023-05-11T22:57:27.775Z,91.50
2023-05-11T22:59:54.497Z,91.50
2023-05-11T23:02:21.712Z,91.50
2023-05-11T23:04:52.274Z,91.60
2023-05-11T23:07:19.664Z,91.60
2023-05-11T23:09:46.751Z,91.60
2023-05-11T23:12:13.525Z,91.60
2023-05-11T23:14:40.240Z,91.60
2023-05-11T23:17:06.965Z,91.60
2023-05-11T23:19:33.904Z,91.60
2023-05-11T23:22:00.884Z,91.60
2023-05-11T23:24:28.919Z,91.60
2023-05-11T23:26:55.935Z,91.60
2023-05-11T23:29:22.833Z,91.60
2023-05-11T23:31:51.069Z,91.60
2023-05-11T23:34:18.112Z,91.60
2023-05-11T23:36:44.950Z,91.70
2023-05-11T23:39:11.670Z,91.70
2023-05-11T23:41:38.532Z,91.70
2023-05-11T23:44:05.386Z,91.70
2023-05-11T23:46:32.579Z,91.70
2023-05-11T23:48:59.402Z,91.70
2023-05-11T23:51:26.374Z,91.70
2023-05-11T23:53:53.229Z,91.70
2023-05-11T23:56:19.958Z,91.70
2023-05-11T23:58:46.788Z,91.70
